createdAt,value
2018-02-09T00:00:29.981Z,0.00
2018-02-09T00:01:35.499Z,0.00
2018-02-09T00:02:41.026Z,0.00
2018-02-09T00:03:46.548Z,0.00
2018-02-09T00:04:52.073Z,0.00
2018-02-09T00:05:57.601Z,0.00
2018-02-09T00:07:03.121Z,0.00
2018-02-09T00:08:08.649Z,0.00
2018-02-09T00:09:14.171Z,0.00
2018-02-09T00:10:19.702Z,0.00
2018-02-09T00:11:25.223Z,0.00
2018-02-09T00:12:30.742Z,0.00
2018-02-09T00:13:36.270Z,0.00
2018-02-09T00:14:41.794Z,0.00
2018-02-09T00:15:47.316Z,0.00
2018-02-09T00:16:52.838Z,0.00
2018-02-09T00:17:58.379Z,0.00
2018-02-09T00:19:03.892Z,0.00
2018-02-09T00:20:09.423Z,0.00
2018-02-09T00:21:14.937Z,0.00
2018-02-09T00:22:20.470Z,0.00
2018-02-09T00:23:25.985Z,0.00
2018-02-09T00:24:31.512Z,0.00
2018-02-09T00:25:37.039Z,0.00
2018-02-09T00:26:42.560Z,0.00
2018-02-09T00:27:48.092Z,0.00
2018-02-09T00:28:53.607Z,0.00
2018-02-09T00:29:59.137Z,0.00
2018-02-09T00:31:04.666Z,0.00
2018-02-09T00:32:10.186Z,0.00
2018-02-09T00:33:15.708Z,0.00
2018-02-09T00:34:21.233Z,0.00
2018-02-09T00:35:26.756Z,0.00
2018-02-09T00:36:32.281Z,0.00
2018-02-09T00:37:37.805Z,0.00
2018-02-09T00:38:43.329Z,0.00
2018-02-09T00:39:48.855Z,0.00
2018-02-09T00:40:54.376Z,0.00
2018-02-09T00:41:59.902Z,0.00
2018-02-09T00:43:05.423Z,0.00
2018-02-09T00:44:10.949Z,0.00
2018-02-09T00:45:16.475Z,0.00
2018-02-09T00:46:21.999Z,0.00
2018-02-09T00:47:27.525Z,0.00
2018-02-09T00:48:33.047Z,0.00
2018-02-09T00:49:38.575Z,0.00
2018-02-09T00:50:44.093Z,0.00
2018-02-09T00:51:49.626Z,0.00
2018-02-09T00:52:55.138Z,0.00
2018-02-09T00:54:00.669Z,0.00
2018-02-09T00:55:06.189Z,0.00
2018-02-09T00:56:11.722Z,0.00
2018-02-09T00:57:17.243Z,0.00
2018-02-09T00:58:22.764Z,0.00
2018-02-09T00:59:28.286Z,0.00
2018-02-09T01:00:33.816Z,0.00
2018-02-09T01:01:39.334Z,0.00
2018-02-09T01:02:44.863Z,0.00
2018-02-09T01:03:50.381Z,0.00
2018-02-09T01:04:55.911Z,0.00
2018-02-09T01:06:01.433Z,0.00
2018-02-09T01:07:06.963Z,0.00
2018-02-09T01:08:12.478Z,0.00
2018-02-09T01:09:18.006Z,0.00
2018-02-09T01:10:23.530Z,0.00
2018-02-09T01:11:29.054Z,0.00
2018-02-09T01:12:34.580Z,0.00
2018-02-09T01:13:40.098Z,0.00
2018-02-09T01:14:45.629Z,0.00
2018-02-09T01:15:51.148Z,0.00
2018-02-09T01:16:56.680Z,0.00
2018-02-09T01:18:02.195Z,0.00
2018-02-09T01:19:07.720Z,0.00
2018-02-09T01:20:13.252Z,0.00
2018-02-09T01:21:18.772Z,0.00
2018-02-09T01:22:24.294Z,0.00
2018-02-09T01:23:29.815Z,0.00
2018-02-09T01:24:35.344Z,0.00
2018-02-09T01:25:40.865Z,0.00
2018-02-09T01:26:46.391Z,0.00
2018-02-09T01:27:51.915Z,0.00
2018-02-09T01:28:57.435Z,0.00
2018-02-09T01:30:02.965Z,0.00
2018-02-09T01:31:08.483Z,0.00
2018-02-09T01:32:14.012Z,0.00
2018-02-09T01:33:19.540Z,0.00
2018-02-09T01:34:25.059Z,0.00
2018-02-09T01:35:30.582Z,0.00
2018-02-09T01:36:36.111Z,0.00
2018-02-09T01:37:41.627Z,0.00
2018-02-09T01:38:47.152Z,0.00
2018-02-09T01:39:52.674Z,0.00
2018-02-09T01:40:58.200Z,0.00
2018-02-09T01:42:03.731Z,0.00
2018-02-09T01:43:09.251Z,0.00
2018-02-09T01:44:14.771Z,0.00
2018-02-09T01:45:20.306Z,0.00
2018-02-09T01:46:25.822Z,0.00
2018-02-09T01:47:31.355Z,0.00
2018-02-09T01:48:36.865Z,0.00
2018-02-09T01:49:42.394Z,0.00
2018-02-09T01:50:47.922Z,0.00
2018-02-09T01:51:53.441Z,0.00
2018-02-09T01:52:58.964Z,0.00
2018-02-09T01:54:04.492Z,0.00
2018-02-09T01:55:10.010Z,0.00
2018-02-09T01:56:15.536Z,0.00
2018-02-09T01:57:21.061Z,0.00
2018-02-09T01:58:26.581Z,0.00
2018-02-09T01:59:32.102Z,0.00
2018-02-09T02:00:37.632Z,0.00
2018-02-09T02:01:43.151Z,0.00
2018-02-09T02:02:48.680Z,0.00
2018-02-09T02:03:54.201Z,0.00
2018-02-09T02:04:59.724Z,0.00
2018-02-09T02:06:05.250Z,0.00
2018-02-09T02:07:10.770Z,0.00
2018-02-09T02:08:16.306Z,0.00
2018-02-09T02:09:21.827Z,0.00
2018-02-09T02:10:27.346Z,0.00
2018-02-09T02:11:32.872Z,0.00
2018-02-09T02:12:38.390Z,0.00
2018-02-09T02:13:43.919Z,0.00
2018-02-09T02:14:49.442Z,0.00
2018-02-09T02:15:54.967Z,0.00
2018-02-09T02:17:00.488Z,0.00
2018-02-09T02:18:06.011Z,0.00
2018-02-09T02:19:11.534Z,0.00
2018-02-09T02:20:17.061Z,0.00
2018-02-09T02:21:22.583Z,0.00
2018-02-09T02:22:28.111Z,0.00
2018-02-09T02:23:33.629Z,0.00
2018-02-09T02:24:39.159Z,0.00
2018-02-09T02:25:44.680Z,0.00
2018-02-09T02:26:50.206Z,0.00
2018-02-09T02:27:55.724Z,0.00
2018-02-09T02:29:01.254Z,0.00
2018-02-09T02:30:06.789Z,0.00
2018-02-09T02:31:12.297Z,0.00
2018-02-09T02:32:17.831Z,0.00
2018-02-09T02:33:23.350Z,0.00
2018-02-09T02:34:28.870Z,0.00
2018-02-09T02:35:34.391Z,0.00
2018-02-09T02:36:39.922Z,0.00
2018-02-09T02:37:45.441Z,0.00
2018-02-09T02:38:50.967Z,0.00
2018-02-09T02:39:56.493Z,0.00
2018-02-09T02:41:02.013Z,0.00
2018-02-09T02:42:07.541Z,0.00
2018-02-09T02:43:13.067Z,0.00
2018-02-09T02:44:18.590Z,0.00
2018-02-09T02:45:24.111Z,0.00
2018-02-09T02:46:29.634Z,0.00
2018-02-09T02:47:35.155Z,0.00
2018-02-09T02:48:40.679Z,0.00
2018-02-09T02:49:46.229Z,0.00
2018-02-09T02:50:51.727Z,0.00
2018-02-09T02:51:57.252Z,0.00
2018-02-09T02:53:02.780Z,0.00
2018-02-09T02:54:08.295Z,0.00
2018-02-09T02:55:13.824Z,0.00
2018-02-09T02:56:19.349Z,0.00
2018-02-09T02:57:24.873Z,0.00
2018-02-09T02:58:30.391Z,0.00
2018-02-09T02:59:35.924Z,0.00
2018-02-09T03:00:41.444Z,0.00
2018-02-09T03:01:46.962Z,0.00
2018-02-09T03:02:52.490Z,0.00
2018-02-09T03:03:58.011Z,0.00
2018-02-09T03:05:03.539Z,0.00
2018-02-09T03:06:09.058Z,0.00
2018-02-09T03:07:14.584Z,0.00
2018-02-09T03:08:20.112Z,0.00
2018-02-09T03:09:25.634Z,0.00
2018-02-09T03:10:31.160Z,0.00
2018-02-09T03:11:36.687Z,0.00
2018-02-09T03:12:42.209Z,0.00
2018-02-09T03:13:47.773Z,0.00
2018-02-09T03:14:53.250Z,0.00
2018-02-09T03:15:58.774Z,0.00
2018-02-09T03:17:04.297Z,0.00
2018-02-09T03:18:09.831Z,0.00
2018-02-09T03:19:15.342Z,0.00
2018-02-09T03:20:20.872Z,0.00
2018-02-09T03:21:26.391Z,0.00
2018-02-09T03:22:31.922Z,0.00
2018-02-09T03:23:37.441Z,0.00
2018-02-09T03:24:42.962Z,0.00
2018-02-09T03:25:48.488Z,0.00
2018-02-09T03:26:54.016Z,0.00
2018-02-09T03:27:59.532Z,0.00
2018-02-09T03:29:05.064Z,0.00
2018-02-09T03:30:10.587Z,0.00
2018-02-09T03:31:16.104Z,0.00
2018-02-09T03:32:21.627Z,0.00
2018-02-09T03:33:27.151Z,0.00
2018-02-09T03:34:32.678Z,0.00
2018-02-09T03:35:38.200Z,0.00
2018-02-09T03:36:43.723Z,0.00
2018-02-09T03:37:49.253Z,0.00
2018-02-09T03:38:54.776Z,0.00
2018-02-09T03:40:00.294Z,0.00
2018-02-09T03:41:05.825Z,0.00
2018-02-09T03:42:11.343Z,0.00
2018-02-09T03:43:16.868Z,0.00
2018-02-09T03:44:22.393Z,0.00
2018-02-09T03:45:27.914Z,0.00
2018-02-09T03:46:33.443Z,0.00
2018-02-09T03:47:38.963Z,0.00
2018-02-09T03:48:44.485Z,0.00
2018-02-09T03:49:50.013Z,0.00
2018-02-09T03:50:55.539Z,0.00
2018-02-09T03:52:01.064Z,0.00
2018-02-09T03:53:06.584Z,0.00
2018-02-09T03:54:12.104Z,0.00
2018-02-09T03:55:17.630Z,0.00
2018-02-09T03:56:23.150Z,0.00
2018-02-09T03:57:28.675Z,0.00
2018-02-09T03:58:34.199Z,0.00
2018-02-09T03:59:39.723Z,0.00
2018-02-09T04:00:45.246Z,0.00
2018-02-09T04:01:50.771Z,0.00
2018-02-09T04:02:56.297Z,0.00
2018-02-09T04:04:01.824Z,0.00
2018-02-09T04:05:07.341Z,0.00
2018-02-09T04:06:12.863Z,0.00
2018-02-09T04:07:18.480Z,0.00
2018-02-09T04:08:23.915Z,0.00
2018-02-09T04:09:29.439Z,0.00
2018-02-09T04:10:34.965Z,0.00
2018-02-09T04:11:40.483Z,0.00
2018-02-09T04:12:46.007Z,0.00
2018-02-09T04:13:51.529Z,0.00
2018-02-09T04:14:57.056Z,0.00
2018-02-09T04:16:02.579Z,0.00
2018-02-09T04:17:08.100Z,0.00
2018-02-09T04:18:13.630Z,0.00
2018-02-09T04:19:19.148Z,0.00
2018-02-09T04:20:24.676Z,0.00
2018-02-09T04:21:30.203Z,0.00
2018-02-09T04:22:35.721Z,0.00
2018-02-09T04:23:41.251Z,0.00
2018-02-09T04:24:46.771Z,0.00
2018-02-09T04:25:52.293Z,0.00
2018-02-09T04:26:57.814Z,0.00
2018-02-09T04:28:03.339Z,0.00
2018-02-09T04:29:08.864Z,0.00
2018-02-09T04:30:14.389Z,0.00
2018-02-09T04:31:19.921Z,0.00
2018-02-09T04:32:25.435Z,0.00
2018-02-09T04:33:30.964Z,0.00
2018-02-09T04:34:36.492Z,0.00
2018-02-09T04:35:42.009Z,0.00
2018-02-09T04:36:47.538Z,0.00
2018-02-09T04:37:53.054Z,0.00
2018-02-09T04:38:58.584Z,0.00
2018-02-09T04:40:04.105Z,0.00
2018-02-09T04:41:09.623Z,0.00
2018-02-09T04:42:15.153Z,0.00
2018-02-09T04:43:20.674Z,0.00
2018-02-09T04:44:26.194Z,0.00
2018-02-09T04:45:31.725Z,0.00
2018-02-09T04:46:37.244Z,0.00
2018-02-09T04:47:42.767Z,0.00
2018-02-09T04:48:48.291Z,0.00
2018-02-09T04:49:53.820Z,0.00
2018-02-09T04:50:59.344Z,0.00
2018-02-09T04:52:04.862Z,0.00
2018-02-09T04:53:10.394Z,0.00
2018-02-09T04:54:15.915Z,0.00
2018-02-09T04:55:21.433Z,0.00
2018-02-09T04:56:26.962Z,0.00
2018-02-09T04:57:32.482Z,0.00
2018-02-09T04:58:38.010Z,0.00
2018-02-09T04:59:43.537Z,0.00
2018-02-09T05:00:49.063Z,0.00
2018-02-09T05:01:54.575Z,0.00
2018-02-09T05:03:00.107Z,0.00
2018-02-09T05:04:05.627Z,0.00
2018-02-09T05:05:11.153Z,0.00
2018-02-09T05:06:16.672Z,0.00
2018-02-09T05:07:22.242Z,0.00
2018-02-09T05:08:27.720Z,0.00
2018-02-09T05:09:33.261Z,0.00
2018-02-09T05:10:38.768Z,0.00
2018-02-09T05:11:44.292Z,0.00
2018-02-09T05:12:49.816Z,0.00
2018-02-09T05:13:55.343Z,0.00
2018-02-09T05:15:00.863Z,0.00
2018-02-09T05:16:06.391Z,0.00
2018-02-09T05:17:11.951Z,0.00
2018-02-09T05:18:17.437Z,0.00
2018-02-09T05:19:22.958Z,0.00
2018-02-09T05:20:28.486Z,0.00
2018-02-09T05:21:34.007Z,0.00
2018-02-09T05:22:39.532Z,0.00
2018-02-09T05:23:45.053Z,0.00
2018-02-09T05:24:50.585Z,0.00
2018-02-09T05:25:56.104Z,0.00
2018-02-09T05:27:01.628Z,0.00
2018-02-09T05:28:07.152Z,0.00
2018-02-09T05:29:12.672Z,0.00
2018-02-09T05:30:18.197Z,0.00
2018-02-09T05:31:23.729Z,0.00
2018-02-09T05:32:29.242Z,0.00
2018-02-09T05:33:34.771Z,0.00
2018-02-09T05:34:40.299Z,0.00
2018-02-09T05:35:45.823Z,0.00
2018-02-09T05:36:51.376Z,0.00
2018-02-09T05:37:56.867Z,0.00
2018-02-09T05:39:02.393Z,0.00
2018-02-09T05:40:07.913Z,0.00
2018-02-09T05:41:13.435Z,0.00
2018-02-09T05:42:18.959Z,0.00
2018-02-09T05:43:24.485Z,0.00
2018-02-09T05:44:30.008Z,0.00
2018-02-09T05:45:35.534Z,0.00
2018-02-09T05:46:41.063Z,0.00
2018-02-09T05:47:46.577Z,0.00
2018-02-09T05:48:52.107Z,0.00
2018-02-09T05:49:57.628Z,0.00
2018-02-09T05:51:03.152Z,0.00
2018-02-09T05:52:08.672Z,0.00
2018-02-09T05:53:14.198Z,0.00
2018-02-09T05:54:19.722Z,0.00
2018-02-09T05:55:25.244Z,0.00
2018-02-09T05:56:30.768Z,0.00
2018-02-09T05:57:36.302Z,0.00
2018-02-09T05:58:41.940Z,0.00
2018-02-09T05:59:47.343Z,0.00
2018-02-09T06:00:52.985Z,0.00
2018-02-09T06:01:58.390Z,0.00
2018-02-09T06:03:03.914Z,0.00
2018-02-09T06:04:09.450Z,0.00
2018-02-09T06:05:14.965Z,0.00
2018-02-09T06:06:20.490Z,0.00
2018-02-09T06:07:26.134Z,0.00
2018-02-09T06:08:31.530Z,0.00
2018-02-09T06:09:37.054Z,0.00
2018-02-09T06:10:42.665Z,0.00
2018-02-09T06:11:48.105Z,0.00
2018-02-09T06:12:53.625Z,0.00
2018-02-09T06:13:59.163Z,0.00
2018-02-09T06:15:04.678Z,4.00
2018-02-09T06:16:10.199Z,0.00
2018-02-09T06:17:15.722Z,4.00
2018-02-09T06:18:21.246Z,4.00
2018-02-09T06:19:26.767Z,4.00
2018-02-09T06:20:32.292Z,0.00
2018-02-09T06:21:37.815Z,4.00
2018-02-09T06:22:43.341Z,4.00
2018-02-09T06:23:48.869Z,8.00
2018-02-09T06:24:54.394Z,8.00
2018-02-09T06:25:59.911Z,8.00
2018-02-09T06:27:05.435Z,12.00
2018-02-09T06:28:10.956Z,12.00
2018-02-09T06:29:16.488Z,12.00
2018-02-09T06:30:22.006Z,16.00
2018-02-09T06:31:27.531Z,16.00
2018-02-09T06:32:33.052Z,24.00
2018-02-09T06:33:38.575Z,24.00
2018-02-09T06:34:44.100Z,28.00
2018-02-09T06:35:49.622Z,36.00
2018-02-09T06:36:55.151Z,36.00
2018-02-09T06:38:00.671Z,44.00
2018-02-09T06:39:06.196Z,48.00
2018-02-09T06:40:11.716Z,56.00
2018-02-09T06:41:17.248Z,64.00
2018-02-09T06:42:22.767Z,72.00
2018-02-09T06:43:28.291Z,80.00
2018-02-09T06:44:33.820Z,92.00
2018-02-09T06:45:39.335Z,100.00
2018-02-09T06:46:44.863Z,112.00
2018-02-09T06:47:50.387Z,120.00
2018-02-09T06:48:55.912Z,136.00
2018-02-09T06:50:01.432Z,148.00
2018-02-09T06:51:06.961Z,164.00
2018-02-09T06:52:12.481Z,176.00
2018-02-09T06:53:18.003Z,188.00
2018-02-09T06:54:23.529Z,204.00
2018-02-09T06:55:29.057Z,220.00
2018-02-09T06:56:34.575Z,240.00
2018-02-09T06:57:40.096Z,256.00
2018-02-09T06:58:45.625Z,276.00
2018-02-09T06:59:51.149Z,292.00
2018-02-09T07:00:56.675Z,312.00
2018-02-09T07:02:02.193Z,336.00
2018-02-09T07:03:07.735Z,360.00
2018-02-09T07:04:13.241Z,380.00
2018-02-09T07:05:18.768Z,404.00
2018-02-09T07:06:24.299Z,424.00
2018-02-09T07:07:29.820Z,452.00
2018-02-09T07:08:35.345Z,476.00
2018-02-09T07:09:40.866Z,496.00
2018-02-09T07:10:46.386Z,520.00
2018-02-09T07:11:51.906Z,552.00
2018-02-09T07:12:57.440Z,576.00
2018-02-09T07:14:02.958Z,596.00
2018-02-09T07:15:08.479Z,624.00
2018-02-09T07:16:14.010Z,652.00
2018-02-09T07:17:19.532Z,684.00
2018-02-09T07:18:25.052Z,708.00
2018-02-09T07:19:30.574Z,736.00
2018-02-09T07:20:36.114Z,768.00
2018-02-09T07:21:41.628Z,792.00
2018-02-09T07:22:47.156Z,820.00
2018-02-09T07:23:52.669Z,852.00
2018-02-09T07:24:58.265Z,880.00
2018-02-09T07:26:03.717Z,908.00
2018-02-09T07:27:09.244Z,940.00
2018-02-09T07:28:14.765Z,964.00
2018-02-09T07:29:20.293Z,992.00
2018-02-09T07:30:25.819Z,1020.00
2018-02-09T07:31:31.343Z,1052.00
2018-02-09T07:32:36.862Z,1080.00
2018-02-09T07:33:42.385Z,1108.00
2018-02-09T07:34:47.909Z,1136.00
2018-02-09T07:35:53.439Z,1164.00
2018-02-09T07:36:58.958Z,1192.00
2018-02-09T07:38:04.482Z,1220.00
2018-02-09T07:39:10.007Z,1244.00
2018-02-09T07:40:15.541Z,1272.00
2018-02-09T07:41:21.056Z,1304.00
2018-02-09T07:42:26.583Z,1332.00
2018-02-09T07:43:32.136Z,1364.00
2018-02-09T07:44:37.641Z,1392.00
2018-02-09T07:45:43.152Z,1424.00
2018-02-09T07:46:48.680Z,1456.00
2018-02-09T07:47:54.200Z,1488.00
2018-02-09T07:48:59.730Z,1516.00
2018-02-09T07:50:05.251Z,1540.00
2018-02-09T07:51:10.779Z,1572.00
2018-02-09T07:52:16.299Z,1600.00
2018-02-09T07:53:21.823Z,1632.00
2018-02-09T07:54:27.346Z,1656.00
2018-02-09T07:55:32.871Z,1684.00
2018-02-09T07:56:38.396Z,1708.00
2018-02-09T07:57:43.916Z,1736.00
2018-02-09T07:58:49.441Z,1768.00
2018-02-09T07:59:54.971Z,1788.00
2018-02-09T08:01:00.492Z,1808.00
2018-02-09T08:02:06.015Z,1832.00
2018-02-09T08:03:11.541Z,1864.00
2018-02-09T08:04:17.100Z,1884.00
2018-02-09T08:05:22.592Z,1904.00
2018-02-09T08:06:28.121Z,1932.00
2018-02-09T08:07:33.641Z,1956.00
2018-02-09T08:08:39.162Z,1976.00
2018-02-09T08:09:44.686Z,2004.00
2018-02-09T08:10:50.212Z,2028.00
2018-02-09T08:11:55.768Z,2048.00
2018-02-09T08:13:01.268Z,2080.00
2018-02-09T08:14:06.785Z,2096.00
2018-02-09T08:15:12.314Z,2124.00
2018-02-09T08:16:17.834Z,2152.00
2018-02-09T08:17:23.364Z,2184.00
2018-02-09T08:18:28.886Z,2208.00
2018-02-09T08:19:34.411Z,2236.00
2018-02-09T08:20:39.939Z,2264.00
2018-02-09T08:21:45.463Z,2284.00
2018-02-09T08:22:50.986Z,2308.00
2018-02-09T08:23:56.510Z,2324.00
2018-02-09T08:25:02.044Z,2352.00
2018-02-09T08:26:07.561Z,2380.00
2018-02-09T08:27:13.081Z,2400.00
2018-02-09T08:28:18.612Z,2424.00
2018-02-09T08:29:24.137Z,2436.00
2018-02-09T08:30:29.661Z,2456.00
2018-02-09T08:31:35.181Z,2476.00
2018-02-09T08:32:40.708Z,2500.00
2018-02-09T08:33:46.232Z,2520.00
2018-02-09T08:34:51.759Z,2544.00
2018-02-09T08:35:57.278Z,2568.00
2018-02-09T08:37:02.813Z,2584.00
2018-02-09T08:38:08.330Z,2612.00
2018-02-09T08:39:13.859Z,2624.00
2018-02-09T08:40:19.378Z,2648.00
2018-02-09T08:41:24.917Z,2672.00
2018-02-09T08:42:30.436Z,2688.00
2018-02-09T08:43:36.016Z,2700.00
2018-02-09T08:44:41.486Z,2732.00
2018-02-09T08:45:47.011Z,2760.00
2018-02-09T08:46:52.537Z,2776.00
2018-02-09T08:47:58.061Z,2808.00
2018-02-09T08:49:03.581Z,2812.00
2018-02-09T08:50:09.113Z,2820.00
2018-02-09T08:51:14.636Z,2852.00
2018-02-09T08:52:20.160Z,2864.00
2018-02-09T08:53:25.686Z,2892.00
2018-02-09T08:54:31.206Z,2908.00
2018-02-09T08:55:36.738Z,2904.00
2018-02-09T08:56:42.266Z,2932.00
2018-02-09T08:57:47.785Z,2936.00
2018-02-09T08:58:53.312Z,2956.00
2018-02-09T08:59:58.842Z,2992.00
2018-02-09T09:01:04.360Z,3000.00
2018-02-09T09:02:09.893Z,3004.00
2018-02-09T09:03:15.416Z,3012.00
2018-02-09T09:04:20.943Z,3032.00
2018-02-09T09:05:26.469Z,3048.00
2018-02-09T09:06:31.993Z,3056.00
2018-02-09T09:07:37.519Z,3084.00
2018-02-09T09:08:43.050Z,3092.00
2018-02-09T09:09:48.568Z,3112.00
2018-02-09T09:10:54.096Z,3112.00
2018-02-09T09:11:59.622Z,3148.00
2018-02-09T09:13:05.152Z,3168.00
2018-02-09T09:14:10.671Z,3176.00
2018-02-09T09:15:16.208Z,3200.00
2018-02-09T09:16:21.729Z,3192.00
2018-02-09T09:17:27.252Z,3220.00
2018-02-09T09:18:32.782Z,3244.00
2018-02-09T09:19:38.311Z,3248.00
2018-02-09T09:20:43.834Z,3248.00
2018-02-09T09:21:49.353Z,3276.00
2018-02-09T09:22:54.883Z,3276.00
2018-02-09T09:24:00.409Z,3292.00
2018-02-09T09:25:05.939Z,3308.00
2018-02-09T09:26:11.458Z,3312.00
2018-02-09T09:27:16.991Z,3328.00
2018-02-09T09:28:22.512Z,3356.00
2018-02-09T09:29:28.036Z,3360.00
2018-02-09T09:30:33.566Z,3352.00
2018-02-09T09:31:39.092Z,3364.00
2018-02-09T09:32:44.619Z,3360.00
2018-02-09T09:33:50.144Z,3376.00
2018-02-09T09:34:55.673Z,3400.00
2018-02-09T09:36:01.198Z,3412.00
2018-02-09T09:37:06.725Z,3408.00
2018-02-09T09:38:12.252Z,3412.00
2018-02-09T09:39:17.782Z,3432.00
2018-02-09T09:40:23.300Z,3444.00
2018-02-09T09:41:28.832Z,3460.00
2018-02-09T09:42:34.360Z,3456.00
2018-02-09T09:43:39.884Z,3468.00
2018-02-09T09:44:45.424Z,3476.00
2018-02-09T09:45:50.937Z,3472.00
2018-02-09T09:46:56.464Z,3484.00
2018-02-09T09:48:01.991Z,3504.00
2018-02-09T09:49:07.518Z,3520.00
2018-02-09T09:50:13.044Z,3508.00
2018-02-09T09:51:18.568Z,3512.00
2018-02-09T09:52:24.101Z,3536.00
2018-02-09T09:53:29.631Z,3540.00
2018-02-09T09:54:35.152Z,3532.00
2018-02-09T09:55:40.689Z,3508.00
2018-02-09T09:56:46.209Z,3532.00
2018-02-09T09:57:51.732Z,3544.00
2018-02-09T09:58:57.260Z,3540.00
2018-02-09T10:00:02.790Z,3556.00
2018-02-09T10:01:08.320Z,3548.00
2018-02-09T10:02:13.842Z,3556.00
2018-02-09T10:03:19.371Z,3548.00
2018-02-09T10:04:24.900Z,3564.00
2018-02-09T10:05:30.426Z,3520.00
2018-02-09T10:06:35.947Z,3544.00
2018-02-09T10:07:41.485Z,3576.00
2018-02-09T10:08:47.013Z,3560.00
2018-02-09T10:09:52.532Z,3556.00
2018-02-09T10:10:58.059Z,3556.00
2018-02-09T10:13:35.351Z,3564.00
2018-02-09T10:14:40.789Z,3576.00
2018-02-09T10:16:39.352Z,3592.00
2018-02-09T10:17:44.949Z,3560.00
2018-02-09T10:19:43.281Z,3572.00
2018-02-09T10:20:48.790Z,3584.00
2018-02-09T10:22:47.298Z,3592.00
2018-02-09T10:23:52.822Z,3572.00
2018-02-09T10:24:58.356Z,3576.00
2018-02-09T10:26:03.872Z,3592.00
2018-02-09T10:27:09.397Z,3588.00
2018-02-09T10:28:14.922Z,3580.00
2018-02-09T10:29:20.454Z,3592.00
2018-02-09T10:30:25.984Z,3584.00
2018-02-09T10:31:31.518Z,3600.00
2018-02-09T10:32:37.033Z,3616.00
2018-02-09T10:33:42.564Z,3612.00
2018-02-09T10:34:48.083Z,3612.00
2018-02-09T10:35:53.617Z,3604.00
2018-02-09T10:36:59.141Z,3604.00
2018-02-09T10:38:04.670Z,3604.00
2018-02-09T10:39:10.203Z,3632.00
2018-02-09T10:40:15.722Z,3644.00
2018-02-09T10:41:21.249Z,3620.00
2018-02-09T10:42:26.777Z,3600.00
2018-02-09T10:43:32.303Z,3600.00
2018-02-09T10:44:37.834Z,3640.00
2018-02-09T10:45:43.428Z,3616.00
2018-02-09T10:46:48.890Z,3608.00
2018-02-09T10:47:54.416Z,3644.00
2018-02-09T10:48:59.938Z,3612.00
2018-02-09T10:50:05.462Z,3612.00
2018-02-09T10:51:10.992Z,3612.00
2018-02-09T10:52:16.523Z,3604.00
2018-02-09T10:53:22.051Z,3624.00
2018-02-09T10:54:27.575Z,3620.00
2018-02-09T10:55:33.100Z,3632.00
2018-02-09T10:56:38.632Z,3624.00
2018-02-09T10:57:44.156Z,3628.00
2018-02-09T10:58:49.689Z,3624.00
2018-02-09T10:59:55.216Z,3604.00
2018-02-09T11:01:00.742Z,3612.00
2018-02-09T11:02:06.273Z,3608.00
2018-02-09T11:03:11.808Z,3604.00
2018-02-09T11:04:17.329Z,3592.00
2018-02-09T11:05:22.853Z,3636.00
2018-02-09T11:06:28.390Z,3620.00
2018-02-09T11:07:33.915Z,3636.00
2018-02-09T11:08:39.453Z,3632.00
2018-02-09T11:09:44.973Z,3624.00
2018-02-09T11:10:50.502Z,3624.00
2018-02-09T11:11:56.032Z,3612.00
2018-02-09T11:13:01.558Z,3624.00
2018-02-09T11:14:07.094Z,3612.00
2018-02-09T11:15:12.618Z,3616.00
2018-02-09T11:16:18.142Z,3600.00
2018-02-09T11:17:23.673Z,3600.00
2018-02-09T11:18:29.201Z,3608.00
2018-02-09T11:19:34.727Z,3612.00
2018-02-09T11:20:40.286Z,3608.00
2018-02-09T11:21:45.791Z,3616.00
2018-02-09T11:22:51.322Z,3600.00
2018-02-09T11:23:56.850Z,3588.00
2018-02-09T11:25:02.401Z,3596.00
2018-02-09T11:26:07.905Z,3584.00
2018-02-09T11:27:13.437Z,3556.00
2018-02-09T11:28:18.961Z,3544.00
2018-02-09T11:29:24.490Z,3564.00
2018-02-09T11:30:30.026Z,3544.00
2018-02-09T11:31:35.553Z,3500.00
2018-02-09T11:34:12.920Z,3484.00
2018-02-09T11:35:18.342Z,3504.00
2018-02-09T11:36:23.869Z,3520.00
2018-02-09T11:37:29.393Z,3476.00
2018-02-09T11:38:34.915Z,3496.00
2018-02-09T11:39:40.454Z,3492.00
2018-02-09T11:40:46.026Z,3484.00
2018-02-09T11:41:51.506Z,3468.00
2018-02-09T11:42:57.036Z,3452.00
2018-02-09T11:44:02.554Z,3460.00
2018-02-09T11:45:08.142Z,3456.00
2018-02-09T11:46:13.612Z,3448.00
2018-02-09T11:47:19.149Z,3396.00
2018-02-09T11:48:24.723Z,3456.00
2018-02-09T11:49:30.243Z,3416.00
2018-02-09T11:50:35.729Z,3400.00
2018-02-09T11:51:41.276Z,3396.00
2018-02-09T11:52:46.788Z,3412.00
2018-02-09T11:53:52.310Z,3420.00
2018-02-09T11:54:57.894Z,3420.00
2018-02-09T11:56:03.362Z,3384.00
2018-02-09T11:57:08.952Z,3404.00
2018-02-09T11:58:14.423Z,3360.00
2018-02-09T11:59:19.948Z,3400.00
2018-02-09T12:00:25.489Z,3384.00
2018-02-09T12:01:31.014Z,3392.00
2018-02-09T12:02:36.539Z,3368.00
2018-02-09T12:03:42.063Z,3376.00
2018-02-09T12:04:47.597Z,3340.00
2018-02-09T12:05:53.123Z,3380.00
2018-02-09T12:06:58.655Z,3356.00
2018-02-09T12:08:04.185Z,3360.00
2018-02-09T12:09:09.706Z,3384.00
2018-02-09T12:10:15.233Z,3380.00
2018-02-09T12:11:20.771Z,3356.00
2018-02-09T12:12:26.396Z,3324.00
2018-02-09T12:13:31.834Z,3336.00
2018-02-09T12:14:37.357Z,3336.00
2018-02-09T12:15:42.883Z,3324.00
2018-02-09T12:16:48.412Z,3300.00
2018-02-09T12:17:53.947Z,3352.00
2018-02-09T12:18:59.473Z,3316.00
2018-02-09T12:20:05.004Z,3340.00
2018-02-09T12:21:10.534Z,3368.00
2018-02-09T12:22:16.063Z,3356.00
2018-02-09T12:23:21.593Z,3316.00
2018-02-09T12:24:27.123Z,3292.00
2018-02-09T12:25:32.652Z,3320.00
2018-02-09T12:26:38.184Z,3316.00
2018-02-09T12:27:43.716Z,3312.00
2018-02-09T12:28:49.244Z,3336.00
2018-02-09T12:29:54.770Z,3296.00
2018-02-09T12:31:00.304Z,3292.00
2018-02-09T12:32:05.834Z,3244.00
2018-02-09T12:33:11.363Z,3288.00
2018-02-09T12:34:16.889Z,3272.00
2018-02-09T12:35:22.423Z,3272.00
2018-02-09T12:36:27.945Z,3284.00
2018-02-09T12:37:33.480Z,3232.00
2018-02-09T12:38:39.008Z,3228.00
2018-02-09T12:39:44.537Z,3272.00
2018-02-09T12:40:50.072Z,3256.00
2018-02-09T12:41:55.607Z,3200.00
2018-02-09T12:43:01.143Z,3208.00
2018-02-09T12:44:06.660Z,3208.00
2018-02-09T12:45:12.186Z,3188.00
2018-02-09T12:46:17.723Z,3212.00
2018-02-09T12:47:23.249Z,3188.00
2018-02-09T12:48:28.783Z,3184.00
2018-02-09T12:49:34.312Z,3172.00
2018-02-09T12:50:39.839Z,3140.00
2018-02-09T12:51:45.378Z,3100.00
2018-02-09T12:52:50.894Z,3164.00
2018-02-09T12:53:56.424Z,3164.00
2018-02-09T12:55:01.958Z,3152.00
2018-02-09T12:56:07.484Z,3140.00
2018-02-09T12:57:13.024Z,3128.00
2018-02-09T12:58:18.544Z,3120.00
2018-02-09T12:59:24.081Z,3132.00
2018-02-09T13:00:29.608Z,3096.00
2018-02-09T13:01:35.134Z,3092.00
2018-02-09T13:02:40.669Z,3072.00
2018-02-09T13:03:46.200Z,3060.00
2018-02-09T13:04:51.729Z,3056.00
2018-02-09T13:05:57.255Z,3068.00
2018-02-09T13:07:02.794Z,3048.00
2018-02-09T13:08:08.319Z,3032.00
2018-02-09T13:09:13.844Z,3036.00
2018-02-09T13:10:19.377Z,3048.00
2018-02-09T13:11:24.904Z,3032.00
2018-02-09T13:12:30.443Z,3036.00
2018-02-09T13:13:36.022Z,3036.00
2018-02-09T13:14:41.497Z,2980.00
2018-02-09T13:15:47.034Z,2960.00
2018-02-09T13:16:52.560Z,2924.00
2018-02-09T13:17:58.086Z,2900.00
2018-02-09T13:19:03.619Z,2892.00
2018-02-09T13:20:09.153Z,2896.00
2018-02-09T13:21:14.684Z,2900.00
2018-02-09T13:22:20.252Z,2888.00
2018-02-09T13:23:25.744Z,2860.00
2018-02-09T13:24:31.270Z,2860.00
2018-02-09T13:25:36.808Z,2868.00
2018-02-09T13:26:42.336Z,2876.00
2018-02-09T13:27:47.861Z,2848.00
2018-02-09T13:28:53.405Z,2824.00
2018-02-09T13:29:58.921Z,2832.00
2018-02-09T13:31:04.447Z,2828.00
2018-02-09T13:32:09.986Z,2796.00
2018-02-09T13:33:15.511Z,2808.00
2018-02-09T13:34:21.039Z,2780.00
2018-02-09T13:35:26.631Z,2792.00
2018-02-09T13:36:32.094Z,2772.00
2018-02-09T13:37:37.633Z,2748.00
2018-02-09T13:38:43.158Z,2744.00
2018-02-09T13:39:48.690Z,2736.00
2018-02-09T13:40:54.225Z,2708.00
2018-02-09T13:41:59.758Z,2708.00
2018-02-09T13:43:05.281Z,2704.00
2018-02-09T13:44:10.807Z,2688.00
2018-02-09T13:45:16.344Z,2668.00
2018-02-09T13:46:21.864Z,2668.00
2018-02-09T13:47:27.398Z,2656.00
2018-02-09T13:48:32.930Z,2656.00
2018-02-09T13:49:38.459Z,2636.00
2018-02-09T13:50:43.992Z,2620.00
2018-02-09T13:51:49.569Z,2612.00
2018-02-09T13:52:55.056Z,2592.00
2018-02-09T13:54:00.578Z,2580.00
2018-02-09T13:55:06.106Z,2572.00
2018-02-09T13:56:11.648Z,2544.00